Time;durP1;ratioP1;P1;durP2;ratioP2;P2;SDS_P1;SDS_P2;PMS_P1;PMS_P2;Temp;Humidity;BMP_temperature;BMP_pressure;BME280_temperature;BME280_humidity;BME280_pressure;Samples;Min_cycle;Max_cycle;Signal;HPM_P1;HPM_P2
2022/01/24 00:00:24;;;;;;;23.67;11.30;;;;;;;4.51;100.00;103575.81;5055110;28;20060;-77
2022/01/24 00:02:52;;;;;;;23.60;12.93;;;;;;;4.49;100.00;103575.78;5060660;28;20253;-77
2022/01/24 00:05:20;;;;;;;22.70;10.77;;;;;;;4.49;100.00;103575.78;5061078;28;20094;-77
2022/01/24 00:07:50;;;;;;;23.33;11.43;;;;;;;4.47;100.00;103577.47;5059521;28;20059;-78
2022/01/24 00:10:22;;;;;;;21.50;10.77;;;;;;;4.44;100.00;103571.16;5064691;28;20072;-77
2022/01/24 00:13:03;;;;;;;19.77;10.80;;;;;;;4.42;100.00;103572.84;5058671;28;20087;-78
2022/01/24 00:15:51;;;;;;;24.55;12.75;;;;;;;4.45;100.00;103576.50;5057803;28;20139;-78
2022/01/24 00:18:31;;;;;;;24.38;10.98;;;;;;;4.47;100.00;103584.50;5062524;28;20048;-77
2022/01/24 00:26:46;;;;;;;22.67;10.40;;;;;;;4.43;100.00;103559.69;5060534;28;20060;-75
2022/01/24 00:29:16;;;;;;;24.73;11.82;;;;;;;4.44;100.00;103556.22;5060934;28;20094;-77
2022/01/24 00:31:48;;;;;;;23.58;12.20;;;;;;;4.43;100.00;103554.41;5060101;28;20143;-77
2022/01/24 00:34:18;;;;;;;25.98;11.23;;;;;;;4.44;100.00;103561.50;5061180;28;20087;-77
2022/01/24 00:36:48;;;;;;;21.33;11.18;;;;;;;4.42;100.00;103555.22;5057231;28;20464;-78
2022/01/24 00:39:17;;;;;;;20.95;10.52;;;;;;;4.41;100.00;103556.09;5060261;28;20135;-77
2022/01/24 00:41:51;;;;;;;28.02;13.50;;;;;;;4.46;100.00;103558.88;5058661;28;20510;-77
2022/01/24 00:44:42;;;;;;;24.77;12.45;;;;;;;4.47;100.00;103558.94;5059963;28;20048;-77
2022/01/24 00:47:16;;;;;;;25.23;12.60;;;;;;;4.46;100.00;103558.88;5057802;28;20126;-77
2022/01/24 00:49:54;;;;;;;23.08;11.65;;;;;;;4.41;100.00;103565.75;5061946;28;20102;-77
2022/01/24 00:55:09;;;;;;;27.05;13.40;;;;;;;4.39;100.00;103567.44;5059696;28;20144;-76
2022/01/24 00:57:37;;;;;;;30.20;14.75;;;;;;;4.40;100.00;103550.75;5059911;28;20475;-76
2022/01/24 01:00:06;;;;;;;29.25;14.23;;;;;;;4.40;100.00;103561.31;5059550;28;20107;-75
2022/01/24 01:02:34;;;;;;;30.40;13.90;;;;;;;4.39;100.00;103564.78;5058008;28;20044;-70
2022/01/24 01:05:18;;;;;;;29.25;13.95;;;;;;;4.37;100.00;103558.56;5057768;28;20059;-70
2022/01/24 01:18:07;;;;;;;23.92;12.77;;;;;;;4.35;100.00;103547.03;5059002;28;20105;-76
2022/01/24 01:19:19;;;;;;;29.58;14.23;;;;;;;4.31;100.00;103556.59;5059774;28;20075;-75
2022/01/24 01:21:50;;;;;;;34.95;14.93;;;;;;;4.32;100.00;103560.13;5060319;28;20137;-70
2022/01/24 01:24:22;;;;;;;36.58;15.63;;;;;;;4.30;100.00;103563.59;5059709;28;20083;-70
2022/01/24 01:27:02;;;;;;;26.73;13.32;;;;;;;4.28;100.00;103560.00;5060836;28;20159;-70
2022/01/24 01:29:51;;;;;;;32.25;14.40;;;;;;;4.30;100.00;103558.31;5058942;28;20056;-71
2022/01/24 01:32:36;;;;;;;36.45;17.35;;;;;;;4.31;100.00;103556.59;5058006;28;20147;-70
2022/01/24 01:35:22;;;;;;;35.60;16.67;;;;;;;4.32;100.00;103555.75;5059763;28;20044;-70
2022/01/24 01:54:54;;;;;;;39.83;18.33;;;;;;;4.47;100.00;103544.84;5061222;28;20155;-77
2022/01/24 01:57:24;;;;;;;38.80;17.15;;;;;;;4.41;100.00;103536.66;5052582;28;20218;-77
2022/01/24 01:59:54;;;;;;;36.38;17.13;;;;;;;4.38;100.00;103549.81;5060361;28;20666;-77
2022/01/24 02:02:22;;;;;;;34.22;15.73;;;;;;;4.36;100.00;103546.16;5061148;28;20087;-77
2022/01/24 02:04:50;;;;;;;39.05;17.52;;;;;;;4.37;100.00;103548.88;5059802;28;20110;-77
2022/01/24 02:07:18;;;;;;;36.47;17.77;;;;;;;4.34;100.00;103554.03;5057926;28;20633;-76
2022/01/24 02:09:46;;;;;;;41.75;18.35;;;;;;;4.36;100.00;103555.03;5060433;28;20053;-76
2022/01/24 02:12:17;;;;;;;29.48;15.63;;;;;;;4.34;100.00;103554.03;5057379;28;20040;-77
2022/01/24 02:14:53;;;;;;;36.90;17.85;;;;;;;4.35;100.00;103549.69;5055342;28;20893;-76
2022/01/24 02:17:31;;;;;;;34.90;16.45;;;;;;;4.34;100.00;103542.59;5060148;28;20079;-76
2022/01/24 02:20:25;;;;;;;39.65;18.77;;;;;;;4.34;100.00;103547.88;5060585;28;20123;-76
2022/01/24 02:23:17;;;;;;;39.90;19.13;;;;;;;4.46;100.00;103548.31;5058491;28;20143;-77
2022/01/24 02:25:46;;;;;;;34.33;17.27;;;;;;;4.44;100.00;103537.72;5058266;28;20052;-76
2022/01/24 02:28:16;;;;;;;37.65;18.42;;;;;;;4.66;100.00;103536.69;5059713;28;20075;-76
2022/01/24 02:30:58;;;;;;;36.80;17.77;;;;;;;4.54;100.00;103532.72;5058556;28;20063;-77
2022/01/24 02:33:26;;;;;;;37.78;18.30;;;;;;;4.47;100.00;103528.97;5059418;28;20047;-76
2022/01/24 02:35:53;;;;;;;40.05;16.75;;;;;;;4.46;100.00;103532.44;5055018;28;20067;-76
2022/01/24 02:38:37;;;;;;;45.17;19.20;;;;;;;4.44;100.00;103528.84;5059266;28;20052;-76
2022/01/24 02:49:50;;;;;;;30.30;16.05;;;;;;;4.41;100.00;103524.38;5057581;28;20048;-76
2022/01/24 02:52:18;;;;;;;38.83;18.17;;;;;;;4.42;100.00;103522.63;5058916;28;20136;-76
2022/01/24 02:54:48;;;;;;;39.78;18.30;;;;;;;4.40;100.00;103522.56;5057156;28;20124;-76
2022/01/24 02:57:16;;;;;;;38.78;17.90;;;;;;;4.41;100.00;103526.09;5058500;28;20072;-76
2022/01/24 02:59:44;;;;;;;38.67;18.50;;;;;;;4.39;100.00;103519.84;5058678;28;20097;-76
2022/01/24 03:02:12;;;;;;;38.85;18.80;;;;;;;4.38;100.00;103518.97;5058774;28;20076;-76
2022/01/24 03:04:40;;;;;;;34.38;16.33;;;;;;;4.35;100.00;103515.31;5060387;28;20053;-76
2022/01/24 03:07:09;;;;;;;39.63;17.80;;;;;;;4.33;100.00;103519.66;5055906;28;20094;-76
2022/01/24 03:09:36;;;;;;;37.65;18.42;;;;;;;4.33;100.00;103520.53;5055026;28;20049;-77
2022/01/24 03:12:11;;;;;;;40.53;18.75;;;;;;;4.36;100.00;103515.38;5056515;28;20152;-76
2022/01/24 03:14:39;;;;;;;34.95;18.52;;;;;;;4.37;100.00;103517.16;5057222;28;20510;-79
2022/01/24 03:17:08;;;;;;;34.15;17.95;;;;;;;4.37;100.00;103505.69;5059371;28;20044;-77
2022/01/24 03:19:35;;;;;;;38.47;18.25;;;;;;;4.37;100.00;103501.28;5057095;28;20083;-75
2022/01/24 03:22:04;;;;;;;40.60;18.20;;;;;;;4.44;100.00;103503.34;5057638;28;20131;-75
2022/01/24 03:24:31;;;;;;;39.97;19.20;;;;;;;4.40;100.00;103506.69;5057507;28;20051;-75
2022/01/24 03:26:59;;;;;;;39.90;20.02;;;;;;;4.37;100.00;103500.41;5057253;28;20051;-76
2022/01/24 03:29:28;;;;;;;38.78;17.80;;;;;;;4.36;100.00;103504.78;5058109;28;20577;-76
2022/01/24 03:31:56;;;;;;;40.85;18.13;;;;;;;4.35;100.00;103502.97;5057611;28;20045;-76
2022/01/24 03:34:28;;;;;;;38.42;19.10;;;;;;;4.31;100.00;103490.50;5059838;28;20036;-70
2022/01/24 03:36:58;;;;;;;49.72;21.48;;;;;;;4.36;100.00;103493.31;5058119;28;20052;-70
2022/01/24 03:39:26;;;;;;;36.78;18.40;;;;;;;4.32;100.00;103492.28;5053056;28;20056;-70
2022/01/24 03:42:00;;;;;;;43.15;20.40;;;;;;;4.30;100.00;103491.34;5061116;28;20219;-70
2022/01/24 03:44:35;;;;;;;38.42;18.00;;;;;;;4.30;100.00;103484.31;5061112;28;20626;-70
2022/01/24 03:47:30;;;;;;;44.25;20.00;;;;;;;4.33;100.00;103493.22;5060252;28;20056;-70
2022/01/24 03:50:00;;;;;;;41.63;18.40;;;;;;;4.37;100.00;103495.09;5060194;28;20170;-70
2022/01/24 03:52:31;;;;;;;43.92;19.58;;;;;;;4.38;100.00;103489.88;5059550;28;20129;-70
2022/01/24 03:55:04;;;;;;;45.47;20.50;;;;;;;4.37;100.00;103490.72;5043359;28;20075;-70
2022/01/24 03:58:00;;;;;;;39.53;19.05;;;;;;;4.37;100.00;103498.66;5049874;28;20071;-71
2022/01/24 04:00:33;;;;;;;37.17;18.23;;;;;;;4.39;100.00;103501.34;5062314;28;20174;-70
2022/01/24 04:03:03;;;;;;;41.83;20.27;;;;;;;4.45;100.00;103501.59;5041395;28;20644;-70
2022/01/24 04:05:57;;;;;;;43.53;20.50;;;;;;;4.37;100.00;103490.72;5045301;28;20323;-70
2022/01/24 04:08:29;;;;;;;41.38;19.35;;;;;;;4.39;100.00;103493.41;5043049;28;20101;-72
2022/01/24 04:11:21;;;;;;;37.83;17.42;;;;;;;4.54;100.00;103493.97;5059034;28;20471;-71
2022/01/24 04:13:57;;;;;;;42.08;19.23;;;;;;;4.45;100.00;103493.66;5059774;28;20060;-71
2022/01/24 04:16:41;;;;;;;45.05;19.90;;;;;;;4.37;100.00;103497.75;5042355;28;20083;-71
2022/01/24 04:21:17;;;;;;;37.20;18.58;;;;;;;4.37;100.00;103498.66;5060080;28;20048;-72
2022/01/24 04:22:05;;;;;;;46.00;22.00;;;;;;;4.33;100.00;103502.03;5055856;28;20057;-71
2022/01/24 04:24:37;;;;;;;42.05;18.88;;;;;;;4.36;100.00;103502.16;5058894;28;21162;-71
2022/01/24 04:27:09;;;;;;;40.53;18.70;;;;;;;4.33;100.00;103502.03;5043625;28;20044;-71
2022/01/24 04:29:38;;;;;;;41.63;18.90;;;;;;;4.39;100.00;103490.78;5056999;28;20056;-72
2022/01/24 04:32:11;;;;;;;37.65;17.73;;;;;;;4.36;100.00;103502.16;5060357;28;20048;-71
2022/01/24 04:35:05;;;;;;;38.33;19.15;;;;;;;4.32;100.00;103497.56;5060479;28;20071;-71
2022/01/24 04:37:57;;;;;;;41.47;18.73;;;;;;;4.28;100.00;103504.50;5063275;28;20050;-72
2022/01/24 04:40:30;;;;;;;41.63;18.98;;;;;;;4.31;100.00;103501.09;5059642;28;20149;-71
2022/01/24 04:43:26;;;;;;;33.90;16.55;;;;;;;4.26;100.00;103500.03;5060574;28;20374;-71
2022/01/24 04:46:42;;;;;;;42.10;18.95;;;;;;;4.21;100.00;103498.94;5060638;28;20051;-71
2022/01/24 04:52:12;;;;;;;40.22;18.25;;;;;;;4.23;100.00;103484.03;5057927;28;20117;-71
2022/01/24 04:54:48;;;;;;;40.88;17.92;;;;;;;4.22;100.00;103485.78;5059223;28;20079;-72
2022/01/24 04:57:24;;;;;;;42.40;18.63;;;;;;;4.21;100.00;103483.97;5055444;28;20066;-71
2022/01/24 04:59:58;;;;;;;37.85;19.05;;;;;;;4.19;100.00;103483.03;5060240;28;20084;-71
2022/01/24 05:02:28;;;;;;;41.38;19.40;;;;;;;4.22;100.00;103487.50;5032655;28;20491;-71
2022/01/24 05:04:59;;;;;;;38.13;19.92;;;;;;;4.20;100.00;103487.47;5028767;28;20059;-76
2022/01/24 05:07:27;;;;;;;37.30;18.58;;;;;;;4.17;100.00;103483.81;5060452;28;20135;-76
2022/01/24 05:10:01;;;;;;;40.10;18.73;;;;;;;4.16;100.00;103485.56;5061528;28;20066;-76
2022/01/24 05:21:11;;;;;;;39.78;19.10;;;;;;;4.14;100.00;103488.97;5058886;28;20102;-76
2022/01/24 05:23:43;;;;;;;40.75;19.08;;;;;;;4.14;100.00;103481.97;5058148;28;20486;-77
2022/01/24 05:26:11;;;;;;;43.88;20.13;;;;;;;4.12;100.00;103483.66;5057248;28;20452;-77
2022/01/24 05:28:39;;;;;;;42.15;20.55;;;;;;;4.09;100.00;103479.16;5060321;28;20048;-77
2022/01/24 05:31:07;;;;;;;39.75;19.38;;;;;;;4.11;100.00;103485.38;5057619;28;20117;-77
2022/01/24 05:33:34;;;;;;;41.05;21.27;;;;;;;4.11;100.00;103480.09;5058841;28;20072;-78
2022/01/24 05:36:04;;;;;;;50.33;20.98;;;;;;;4.09;100.00;103479.16;5056985;28;20282;-78
2022/01/24 05:38:32;;;;;;;48.47;21.70;;;;;;;4.10;100.00;103478.31;5060726;28;20049;-76
2022/01/24 05:41:02;;;;;;;45.63;21.95;;;;;;;4.04;100.00;103474.53;5059576;28;20059;-76
2022/01/24 05:43:29;;;;;;;48.47;21.15;;;;;;;4.11;100.00;103484.50;5059175;28;20056;-77
2022/01/24 05:45:58;;;;;;;51.83;24.20;;;;;;;4.13;100.00;103484.56;5058309;28;20087;-77
2022/01/24 05:48:25;;;;;;;56.65;25.67;;;;;;;4.11;100.00;103481.84;5057117;28;20052;-78
2022/01/24 05:50:54;;;;;;;57.40;24.70;;;;;;;4.11;100.00;103482.75;5060249;28;20057;-77
2022/01/24 05:53:24;;;;;;;50.00;24.38;;;;;;;4.09;100.00;103484.44;5060444;28;20060;-76
2022/01/24 05:55:53;;;;;;;48.35;23.35;;;;;;;4.10;100.00;103485.31;5057614;28;20052;-75
2022/01/24 05:58:20;;;;;;;50.50;24.08;;;;;;;4.09;100.00;103483.53;5059145;28;20075;-77
2022/01/24 06:00:49;;;;;;;60.30;24.27;;;;;;;4.16;100.00;103484.66;5055833;28;20055;-78
2022/01/24 06:03:17;;;;;;;59.55;27.20;;;;;;;4.11;100.00;103487.13;5058843;28;20413;-77
2022/01/24 06:05:46;;;;;;;67.32;28.55;;;;;;;4.16;100.00;103493.50;5057913;28;20059;-72
2022/01/24 06:08:16;;;;;;;60.58;26.90;;;;;;;4.13;100.00;103490.72;5060078;28;20182;-70
2022/01/24 06:10:47;;;;;;;66.82;28.25;;;;;;;4.08;100.00;103497.59;5060179;28;20080;-72
2022/01/24 06:13:16;;;;;;;66.43;28.55;;;;;;;4.05;100.00;103495.75;5059880;28;20524;-72
2022/01/24 06:15:45;;;;;;;66.40;28.95;;;;;;;4.12;100.00;103496.88;5055491;28;20470;-72
2022/01/24 06:18:17;;;;;;;69.18;30.45;;;;;;;4.19;100.00;103504.19;5058367;28;20055;-72
2022/01/24 06:20:46;;;;;;;75.15;29.35;;;;;;;4.18;100.00;103507.66;5040409;28;20056;-72
2022/01/24 06:23:21;;;;;;;70.80;31.30;;;;;;;4.10;100.00;103501.19;5057293;28;20825;-73
2022/01/24 06:25:59;;;;;;;67.43;29.65;;;;;;;4.05;100.00;103503.66;5042348;28;20048;-72
2022/01/24 06:28:34;;;;;;;71.57;32.58;;;;;;;4.03;100.00;103507.97;5059656;28;20504;-72
2022/01/24 06:31:06;;;;;;;78.13;30.67;;;;;;;4.01;100.00;103509.66;5058545;28;20613;-72
2022/01/24 06:33:40;;;;;;;80.25;33.80;;;;;;;4.00;100.00;103509.59;5041748;28;20133;-72
2022/01/24 06:36:08;;;;;;;76.57;33.50;;;;;;;3.98;100.00;103508.66;5042793;28;20088;-77
2022/01/24 06:38:36;;;;;;;72.43;29.90;;;;;;;3.98;100.00;103504.25;5057713;28;20102;-77
2022/01/24 06:41:13;;;;;;;84.55;33.00;;;;;;;3.99;100.00;103513.09;5062195;28;20143;-76
2022/01/24 06:43:41;;;;;;;72.35;31.25;;;;;;;3.98;100.00;103509.53;5037856;28;20076;-76
2022/01/24 06:46:08;;;;;;;75.25;32.55;;;;;;;3.94;100.00;103499.72;5035738;28;20056;-76
2022/01/24 06:48:36;;;;;;;79.82;32.83;;;;;;;3.91;100.00;103502.22;5039831;28;20511;-76
2022/01/24 06:51:05;;;;;;;75.85;32.17;;;;;;;3.96;100.00;103507.69;5036357;28;20300;-77
2022/01/24 06:53:33;;;;;;;77.47;32.13;;;;;;;3.93;100.00;103511.09;5036830;28;20064;-77
2022/01/24 06:56:01;;;;;;;78.28;33.20;;;;;;;3.97;100.00;103505.13;5039289;28;20049;-77
2022/01/24 06:58:31;;;;;;;79.15;32.20;;;;;;;3.96;100.00;103510.34;5036155;28;20048;-77
2022/01/24 07:00:59;;;;;;;65.88;30.38;;;;;;;3.96;100.00;103507.69;5039845;28;20049;-77
2022/01/24 07:03:28;;;;;;;62.30;28.52;;;;;;;4.00;100.00;103515.81;5036698;28;20048;-77
2022/01/24 07:05:56;;;;;;;69.28;28.60;;;;;;;3.94;100.00;103518.22;5041472;28;20472;-77
2022/01/24 07:08:24;;;;;;;66.15;28.65;;;;;;;3.90;100.00;103511.91;5039504;28;20057;-77
2022/01/24 07:10:53;;;;;;;74.18;32.67;;;;;;;3.99;100.00;103518.38;5037992;28;20081;-77
2022/01/24 07:13:21;;;;;;;70.93;31.35;;;;;;;3.96;100.00;103528.84;5041188;28;20052;-77
2022/01/24 07:15:54;;;;;;;78.18;32.00;;;;;;;3.92;100.00;103523.44;5042553;28;20052;-77
2022/01/24 07:21:09;;;;;;;85.60;33.20;;;;;;;3.83;100.00;103530.09;5040636;28;21082;-78
2022/01/24 07:23:38;;;;;;;71.95;31.30;;;;;;;3.86;100.00;103531.09;5044517;28;20049;-78
2022/01/24 07:26:06;;;;;;;70.95;31.45;;;;;;;3.83;100.00;103531.00;5041613;28;20082;-77
2022/01/24 07:28:58;;;;;;;79.45;31.65;;;;;;;3.80;100.00;103525.59;5045035;28;20063;-78
2022/01/24 07:31:28;;;;;;;76.60;30.85;;;;;;;3.79;100.00;103538.75;5040132;28;20072;-77
2022/01/24 07:33:56;;;;;;;77.55;32.95;;;;;;;3.83;100.00;103544.22;5041355;28;20076;-77
2022/01/24 07:36:25;;;;;;;81.25;33.45;;;;;;;3.82;100.00;103546.81;5040829;28;20055;-78
2022/01/24 07:38:54;;;;;;;78.07;31.13;;;;;;;3.84;100.00;103546.00;5045064;28;20084;-78
2022/01/24 07:41:26;;;;;;;75.00;33.80;;;;;;;3.86;100.00;103546.94;5041273;28;20068;-77
2022/01/24 07:43:55;;;;;;;71.72;32.92;;;;;;;3.92;100.00;103547.19;5042105;28;20447;-77
2022/01/24 07:46:24;;;;;;;76.35;31.27;;;;;;;3.88;100.00;103555.88;5042026;28;20072;-77
2022/01/24 07:48:54;;;;;;;68.28;28.55;;;;;;;3.82;100.00;103560.91;5041505;28;20049;-77
2022/01/24 07:51:22;;;;;;;74.22;31.45;;;;;;;3.89;100.00;103562.03;5041704;28;20056;-77
2022/01/24 07:53:50;;;;;;;83.40;33.63;;;;;;;3.85;100.00;103561.03;5042690;28;20064;-77
2022/01/24 07:56:18;;;;;;;82.40;34.35;;;;;;;3.83;100.00;103562.72;5039340;28;20140;-77
2022/01/24 07:58:46;;;;;;;73.28;30.80;;;;;;;3.83;100.00;103560.06;5042081;28;20079;-77
2022/01/24 08:01:15;;;;;;;77.50;31.55;;;;;;;3.81;100.00;103556.44;5042448;28;20045;-78
2022/01/24 08:03:43;;;;;;;87.78;32.78;;;;;;;3.86;100.00;103561.91;5039276;28;20635;-77
2022/01/24 08:06:13;;;;;;;82.25;35.40;;;;;;;3.94;100.00;103560.47;5042614;28;20075;-76
2022/01/24 08:08:40;;;;;;;82.43;32.83;;;;;;;3.83;100.00;103552.16;5040568;28;20041;-76
2022/01/24 08:11:09;;;;;;;77.30;32.08;;;;;;;3.87;100.00;103554.06;5042885;28;20042;-71
2022/01/24 08:13:38;;;;;;;72.38;29.50;;;;;;;3.84;100.00;103555.69;5037995;28;20061;-71
2022/01/24 08:16:11;;;;;;;73.13;30.15;;;;;;;3.81;100.00;103566.13;5041739;28;20148;-70
2022/01/24 08:19:04;;;;;;;73.43;28.30;;;;;;;3.85;100.00;103565.41;5040460;28;20072;-71
2022/01/24 08:21:57;;;;;;;65.68;27.70;;;;;;;3.84;100.00;103564.50;5024125;28;20072;-76
2022/01/24 08:24:27;;;;;;;61.03;27.05;;;;;;;3.81;100.00;103568.75;5040817;28;20049;-76
2022/01/24 08:26:57;;;;;;;63.95;28.25;;;;;;;3.81;100.00;103568.75;5039599;28;20159;-71
2022/01/24 08:29:25;;;;;;;64.55;27.27;;;;;;;3.82;100.00;103560.00;5044392;28;20055;-70
2022/01/24 08:31:53;;;;;;;66.80;26.67;;;;;;;3.91;100.00;103557.72;5039307;28;20064;-78
2022/01/24 08:34:21;;;;;;;63.58;26.05;;;;;;;3.81;100.00;103560.84;5040945;28;20073;-78
2022/01/24 08:36:50;;;;;;;60.92;25.13;;;;;;;3.82;100.00;103555.63;5039321;28;20512;-78
2022/01/24 08:39:19;;;;;;;52.92;23.80;;;;;;;3.79;100.00;103560.78;5040940;28;20122;-78
2022/01/24 08:42:00;;;;;;;55.78;24.05;;;;;;;3.81;100.00;103561.72;5038922;28;20272;-78
2022/01/24 08:45:42;;;;;;;55.40;24.00;;;;;;;3.80;100.00;103564.31;5042952;28;20090;-78
2022/01/24 08:47:23;;;;;;;50.20;22.58;;;;;;;3.83;100.00;103560.06;5039237;28;20103;-77
2022/01/24 08:50:11;;;;;;;43.17;20.67;;;;;;;3.84;100.00;103560.97;5037065;28;20131;-78
2022/01/24 08:52:39;;;;;;;44.55;20.60;;;;;;;3.80;100.00;103565.22;5038462;28;20099;-77
2022/01/24 08:55:15;;;;;;;48.60;23.05;;;;;;;3.82;100.00;103574.09;5040129;28;20181;-78
2022/01/24 08:57:43;;;;;;;54.78;22.75;;;;;;;3.81;100.00;103566.13;5037539;28;20444;-78
2022/01/24 09:00:12;;;;;;;51.22;22.48;;;;;;;3.80;100.00;103567.88;5037051;28;20050;-78
2022/01/24 09:02:42;;;;;;;55.92;23.83;;;;;;;3.83;100.00;103570.63;5040854;28;20155;-72
2022/01/24 09:05:11;;;;;;;55.35;23.85;;;;;;;3.87;100.00;103569.91;5023819;28;20136;-73
2022/01/24 09:07:39;;;;;;;53.88;25.00;;;;;;;3.89;100.00;103559.41;5038587;28;20136;-72
2022/01/24 09:10:10;;;;;;;50.28;22.77;;;;;;;3.93;100.00;103570.16;5039701;28;20562;-72
2022/01/24 09:12:44;;;;;;;54.42;24.40;;;;;;;3.98;100.00;103569.41;5036441;28;20136;-71
2022/01/24 09:15:14;;;;;;;52.08;21.40;;;;;;;4.07;100.00;103564.47;5021436;28;20127;-71
2022/01/24 09:17:43;;;;;;;53.45;22.58;;;;;;;4.11;100.00;103574.34;5041690;28;20067;-71
2022/01/24 09:20:14;;;;;;;52.92;24.23;;;;;;;4.06;100.00;103568.88;5040637;28;20044;-70
2022/01/24 09:22:49;;;;;;;55.83;23.70;;;;;;;4.05;100.00;103567.09;5038384;28;20118;-71
2022/01/24 09:25:18;;;;;;;59.20;24.52;;;;;;;4.04;100.00;103567.03;5040351;28;20047;-77
2022/01/24 09:27:48;;;;;;;51.85;22.90;;;;;;;3.99;100.00;103576.53;5040694;28;20131;-77
2022/01/24 09:30:18;;;;;;;50.50;22.40;;;;;;;4.00;100.00;103565.09;5038826;28;20119;-77
2022/01/24 09:33:11;;;;;;;;;;;;;;;4.07;100.00;103565.41;5039594;28;20059;-77
2022/01/24 09:36:04;;;;;;;49.58;22.40;;;;;;;4.07;100.00;103575.03;5035831;28;19990;-71
2022/01/24 09:38:39;;;;;;;61.53;24.17;;;;;;;4.11;100.00;103569.94;5036326;28;20049;-71
2022/01/24 09:41:14;;;;;;;54.60;23.58;;;;;;;3.96;100.00;103569.34;5037430;28;20049;-72
2022/01/24 09:43:45;;;;;;;59.83;23.63;;;;;;;4.03;100.00;103575.78;5036878;28;20506;-73
2022/01/24 09:46:14;;;;;;;55.05;24.58;;;;;;;4.06;100.00;103578.56;5039123;28;20240;-70
2022/01/24 09:48:44;;;;;;;58.08;23.70;;;;;;;4.03;100.00;103576.69;5038419;28;20049;-71
2022/01/24 09:51:12;;;;;;;57.42;26.08;;;;;;;4.06;100.00;103574.16;5020987;28;20099;-77
2022/01/24 09:53:40;;;;;;;57.15;26.25;;;;;;;4.10;100.00;103581.38;5039317;28;21809;-77
2022/01/24 09:56:08;;;;;;;60.00;27.35;;;;;;;4.09;100.00;103581.31;5041082;28;20136;-76
2022/01/24 09:58:37;;;;;;;61.58;26.10;;;;;;;4.20;100.00;103577.31;5037286;28;20128;-77
2022/01/24 10:01:09;;;;;;;58.97;23.38;;;;;;;4.18;100.00;103581.66;5041973;28;20053;-76
2022/01/24 10:03:38;;;;;;;60.60;25.75;;;;;;;4.19;100.00;103579.91;5039532;28;20044;-76
2022/01/24 10:06:12;;;;;;;59.13;23.25;;;;;;;4.15;100.00;103580.63;5039156;28;20045;-77
2022/01/24 10:08:42;;;;;;;62.58;25.67;;;;;;;4.11;100.00;103579.63;5038270;28;20064;-76
2022/01/24 10:11:17;;;;;;;64.15;26.65;;;;;;;4.13;100.00;103587.63;5041477;28;20063;-77
2022/01/24 10:16:36;;;;;;;60.63;25.98;;;;;;;4.28;100.00;103588.19;5036940;28;20106;-78
2022/01/24 10:19:10;;;;;;;64.68;25.80;;;;;;;4.26;100.00;103588.13;5040341;28;20507;-77
2022/01/24 10:22:00;;;;;;;64.68;26.42;;;;;;;4.23;100.00;103590.66;5037809;28;20429;-77
2022/01/24 10:24:35;;;;;;;66.95;26.33;;;;;;;4.30;100.00;103586.50;5039959;28;20207;-77
2022/01/24 10:27:08;;;;;;;55.92;25.50;;;;;;;4.25;100.00;103588.06;5039409;28;20108;-77
2022/01/24 10:29:42;;;;;;;57.97;25.48;;;;;;;4.22;100.00;103595.88;5036979;28;20131;-78
2022/01/24 10:32:27;;;;;;;63.63;26.70;;;;;;;4.17;100.00;103590.44;5038066;28;20056;-78
2022/01/24 10:34:58;;;;;;;62.70;26.63;;;;;;;4.21;100.00;103594.09;5038779;28;20106;-76
2022/01/24 10:37:26;;;;;;;69.28;27.20;;;;;;;4.13;100.00;103591.16;5038368;28;20061;-76
2022/01/24 10:39:59;;;;;;;63.83;26.98;;;;;;;4.22;100.00;103586.25;5040319;28;20045;-71
2022/01/24 10:42:52;;;;;;;64.70;27.02;;;;;;;4.23;100.00;103588.03;5022770;28;20048;-72
2022/01/24 10:45:25;;;;;;;69.03;28.67;;;;;;;4.24;100.00;103586.25;5039594;28;20126;-77
2022/01/24 10:47:55;;;;;;;62.78;26.58;;;;;;;4.34;100.00;103583.13;5038613;28;20076;-76
2022/01/24 10:50:25;;;;;;;66.10;26.00;;;;;;;4.40;100.00;103583.38;5040502;28;20064;-77
2022/01/24 10:52:54;;;;;;;59.40;25.77;;;;;;;4.40;100.00;103574.53;5038333;28;20044;-77
2022/01/24 10:55:28;;;;;;;58.47;24.75;;;;;;;4.32;100.00;103576.88;5040617;28;20056;-77
2022/01/24 10:57:59;;;;;;;60.70;26.50;;;;;;;4.38;100.00;103574.47;5034321;28;20577;-76
2022/01/24 11:00:29;;;;;;;69.43;27.65;;;;;;;4.34;100.00;103569.00;5040715;28;20418;-76
2022/01/24 11:03:02;;;;;;;65.78;27.90;;;;;;;4.57;100.00;103564.59;5037953;28;20060;-76
2022/01/24 11:05:37;;;;;;;57.23;26.30;;;;;;;4.56;100.00;103563.66;5037672;28;20164;-76
2022/01/24 11:08:09;;;;;;;65.15;27.27;;;;;;;4.43;100.00;103557.03;5038742;28;20599;-77
2022/01/24 11:10:40;;;;;;;63.90;27.30;;;;;;;4.31;100.00;103559.25;5037875;28;20052;-76
2022/01/24 11:13:09;;;;;;;61.55;26.52;;;;;;;4.30;100.00;103552.16;5039120;28;20037;-76
2022/01/24 11:15:41;;;;;;;61.22;25.88;;;;;;;4.45;100.00;103549.19;5037240;28;20053;-77
2022/01/24 11:18:14;;;;;;;62.17;27.73;;;;;;;4.60;100.00;103548.84;5037139;28;20072;-77
2022/01/24 11:20:45;;;;;;;64.97;26.42;;;;;;;4.52;100.00;103550.31;5036523;28;20107;-77
2022/01/24 11:23:20;;;;;;;62.42;24.83;;;;;;;4.58;100.00;103553.16;5036657;28;20059;-77
2022/01/24 11:25:50;;;;;;;63.70;26.33;;;;;;;4.70;100.00;103547.41;5037383;28;20065;-77
2022/01/24 11:28:18;;;;;;;67.18;26.67;;;;;;;4.60;100.00;103543.53;5039670;28;20076;-76
2022/01/24 11:30:56;;;;;;;64.53;26.00;;;;;;;4.62;100.00;103536.56;5036664;28;20235;-76
2022/01/24 11:33:34;;;;;;;67.53;27.15;;;;;;;4.73;100.00;103531.63;5036049;28;20150;-76
2022/01/24 11:36:05;;;;;;;60.00;25.65;;;;;;;4.71;100.00;103539.53;5036545;28;20091;-77
2022/01/24 11:38:35;;;;;;;57.53;26.45;;;;;;;4.71;100.00;103543.91;5035357;28;20337;-76
2022/01/24 11:41:13;;;;;;;60.33;26.02;;;;;;;4.72;100.00;103536.03;5035027;28;20118;-77
2022/01/24 11:43:45;;;;;;;67.22;26.75;;;;;;;4.77;100.00;103544.16;5034916;28;20057;-77
2022/01/24 11:46:36;;;;;;;58.45;25.92;;;;;;;4.72;100.00;103533.41;5036515;28;20420;-76
2022/01/24 11:49:08;;;;;;;59.70;25.42;;;;;;;4.76;100.00;103531.75;5038703;28;20048;-77
2022/01/24 11:51:39;;;;;;;58.20;25.65;;;;;;;4.75;100.00;103533.50;5038062;28;20057;-77
2022/01/24 11:54:30;;;;;;;63.90;27.10;;;;;;;4.75;100.00;103541.44;5035149;28;20045;-77
2022/01/24 11:57:21;;;;;;;61.20;25.58;;;;;;;4.76;100.00;103534.41;5035328;28;20075;-76
2022/01/24 11:59:51;;;;;;;59.80;26.13;;;;;;;4.67;100.00;103533.22;5042546;28;20135;-76
2022/01/24 12:02:24;;;;;;;62.45;25.05;;;;;;;4.78;100.00;103532.69;5040560;28;20052;-77
2022/01/24 12:04:56;;;;;;;58.97;24.65;;;;;;;4.69;100.00;103533.28;5043160;28;20049;-77
2022/01/24 12:07:27;;;;;;;60.53;26.08;;;;;;;4.72;100.00;103532.50;5040116;28;20712;-77
2022/01/24 12:10:16;;;;;;;63.97;27.80;;;;;;;4.76;100.00;103532.66;5041648;28;20317;-77
2022/01/24 12:12:48;;;;;;;63.38;25.92;;;;;;;4.75;100.00;103529.94;5039320;28;20331;-77
2022/01/24 12:15:58;;;;;;;69.65;27.17;;;;;;;4.85;100.00;103522.41;5039535;28;20045;-77
2022/01/24 12:18:48;;;;;;;68.32;26.92;;;;;;;4.91;100.00;103518.16;4997539;28;20272;-77
2022/01/24 12:21:22;;;;;;;60.30;24.55;;;;;;;4.97;100.00;103523.66;5040607;28;20120;-76
2022/01/24 12:23:52;;;;;;;59.72;26.23;;;;;;;5.02;100.00;103524.69;5041870;28;20052;-77
2022/01/24 12:26:43;;;;;;;57.92;25.77;;;;;;;4.92;100.00;103523.50;5042127;28;20707;-76
2022/01/24 12:29:15;;;;;;;65.50;26.83;;;;;;;4.90;100.00;103519.88;5039386;28;20053;-76
2022/01/24 12:31:46;;;;;;;71.32;27.60;;;;;;;4.83;100.00;103521.41;5041800;28;20788;-76
2022/01/24 12:34:27;;;;;;;58.50;25.08;;;;;;;4.69;100.00;103520.06;5039591;28;20057;-76
2022/01/24 12:37:03;;;;;;;60.20;26.55;;;;;;;4.92;100.00;103520.88;5039995;28;20080;-76